sensor_id;sensor_type;location;lat;lon;timestamp;pressure;altitude;pressure_sealevel;temperature
66027;BMP280;56312;55.976;37.136;2023-03-14T00:01:18;98205.22;;;0.22
66027;BMP280;56312;55.976;37.136;2023-03-14T00:06:27;98198.47;;;0.24
66027;BMP280;56312;55.976;37.136;2023-03-14T00:11:52;98193.44;;;0.21
66027;BMP280;56312;55.976;37.136;2023-03-14T00:17:17;98181.69;;;0.20
66027;BMP280;56312;55.976;37.136;2023-03-14T00:22:42;98177.47;;;0.20
66027;BMP280;56312;55.976;37.136;2023-03-14T00:28:07;98154.69;;;0.23
66027;BMP280;56312;55.976;37.136;2023-03-14T00:33:32;98163.19;;;0.16
66027;BMP280;56312;55.976;37.136;2023-03-14T00:38:57;98159.84;;;0.16
66027;BMP280;56312;55.976;37.136;2023-03-14T00:44:22;98136.22;;;0.20
66027;BMP280;56312;55.976;37.136;2023-03-14T00:49:47;98126.06;;;0.23
66027;BMP280;56312;55.976;37.136;2023-03-14T00:55:11;98091.63;;;0.17
66027;BMP280;56312;55.976;37.136;2023-03-14T01:00:18;98089.09;;;0.20
66027;BMP280;56312;55.976;37.136;2023-03-14T01:05:24;98065.47;;;0.23
66027;BMP280;56312;55.976;37.136;2023-03-14T01:10:30;98053.81;;;0.13
66027;BMP280;56312;55.976;37.136;2023-03-14T01:15:37;98065.56;;;0.17
66027;BMP280;56312;55.976;37.136;2023-03-14T01:20:43;98060.50;;;0.15
66027;BMP280;56312;55.976;37.136;2023-03-14T01:26:10;98048.75;;;0.13
66027;BMP280;56312;55.976;37.136;2023-03-14T01:31:17;98033.53;;;0.19
66027;BMP280;56312;55.976;37.136;2023-03-14T01:36:23;98017.59;;;0.15
66027;BMP280;56312;55.976;37.136;2023-03-14T01:41:48;98008.34;;;0.16
66027;BMP280;56312;55.976;37.136;2023-03-14T01:46:54;97990.66;;;0.16
66027;BMP280;56312;55.976;37.136;2023-03-14T01:52:02;97964.59;;;0.14
66027;BMP280;56312;55.976;37.136;2023-03-14T01:57:32;97953.69;;;0.12
66027;BMP280;56312;55.976;37.136;2023-03-14T02:02:43;97959.59;;;0.09
66027;BMP280;56312;55.976;37.136;2023-03-14T02:07:53;97924.28;;;0.08
66027;BMP280;56312;55.976;37.136;2023-03-14T02:13:01;97935.28;;;0.02
66027;BMP280;56312;55.976;37.136;2023-03-14T02:18:10;97943.59;;;0.10
66027;BMP280;56312;55.976;37.136;2023-03-14T02:23:22;97944.38;;;0.17
66027;BMP280;56312;55.976;37.136;2023-03-14T02:28:38;97936.84;;;0.11
66027;BMP280;56312;55.976;37.136;2023-03-14T02:33:44;97907.53;;;0.01
66027;BMP280;56312;55.976;37.136;2023-03-14T02:44:20;97911.78;;;-0.02
66027;BMP280;56312;55.976;37.136;2023-03-14T02:49:26;97901.66;;;0.00
66027;BMP280;56312;55.976;37.136;2023-03-14T02:54:36;97899.91;;;0.05
66027;BMP280;56312;55.976;37.136;2023-03-14T02:59:42;97881.38;;;0.06
66027;BMP280;56312;55.976;37.136;2023-03-14T03:04:48;97876.34;;;0.03
66027;BMP280;56312;55.976;37.136;2023-03-14T03:09:55;97862.84;;;0.07
66027;BMP280;56312;55.976;37.136;2023-03-14T03:15:02;97850.25;;;0.06
66027;BMP280;56312;55.976;37.136;2023-03-14T03:20:08;97834.22;;;0.10
66027;BMP280;56312;55.976;37.136;2023-03-14T03:25:15;97830.78;;;0.14
66027;BMP280;56312;55.976;37.136;2023-03-14T03:30:22;97808.06;;;0.14
66027;BMP280;56312;55.976;37.136;2023-03-14T03:35:28;97810.63;;;0.11
66027;BMP280;56312;55.976;37.136;2023-03-14T03:40:35;97824.09;;;0.13
66027;BMP280;56312;55.976;37.136;2023-03-14T03:45:41;97809.75;;;0.13
66027;BMP280;56312;55.976;37.136;2023-03-14T03:50:47;97805.53;;;0.14
66027;BMP280;56312;55.976;37.136;2023-03-14T03:55:53;97806.38;;;0.14
66027;BMP280;56312;55.976;37.136;2023-03-14T04:01:00;97788.75;;;0.13
66027;BMP280;56312;55.976;37.136;2023-03-14T04:06:11;97776.97;;;0.12
66027;BMP280;56312;55.976;37.136;2023-03-14T04:11:18;97766.81;;;0.15
66027;BMP280;56312;55.976;37.136;2023-03-14T04:16:25;97746.63;;;0.15
66027;BMP280;56312;55.976;37.136;2023-03-14T04:21:31;97735.63;;;0.19
66027;BMP280;56312;55.976;37.136;2023-03-14T04:26:38;97733.88;;;0.24
66027;BMP280;56312;55.976;37.136;2023-03-14T04:31:44;97728.81;;;0.24
66027;BMP280;56312;55.976;37.136;2023-03-14T04:36:50;97723.72;;;0.26
66027;BMP280;56312;55.976;37.136;2023-03-14T04:41:57;97727.94;;;0.26
66027;BMP280;56312;55.976;37.136;2023-03-14T04:47:03;97727.91;;;0.27
66027;BMP280;56312;55.976;37.136;2023-03-14T04:52:09;97723.72;;;0.26
66027;BMP280;56312;55.976;37.136;2023-03-14T04:57:16;97732.09;;;0.28
66027;BMP280;56312;55.976;37.136;2023-03-14T05:02:22;97728.75;;;0.26
66027;BMP280;56312;55.976;37.136;2023-03-14T05:07:29;97727.06;;;0.27
66027;BMP280;56312;55.976;37.136;2023-03-14T05:12:35;97742.28;;;0.23
66027;BMP280;56312;55.976;37.136;2023-03-14T05:17:42;97743.91;;;0.26
66027;BMP280;56312;55.976;37.136;2023-03-14T05:22:48;97757.34;;;0.28
66027;BMP280;56312;55.976;37.136;2023-03-14T05:27:54;97751.47;;;0.28
66027;BMP280;56312;55.976;37.136;2023-03-14T05:33:01;97754.84;;;0.27
66027;BMP280;56312;55.976;37.136;2023-03-14T05:38:07;97756.53;;;0.26
66027;BMP280;56312;55.976;37.136;2023-03-14T05:43:14;97756.50;;;0.29
66027;BMP280;56312;55.976;37.136;2023-03-14T05:48:21;97756.56;;;0.25
66027;BMP280;56312;55.976;37.136;2023-03-14T05:53:28;97746.44;;;0.26
66027;BMP280;56312;55.976;37.136;2023-03-14T05:58:35;97753.97;;;0.29
66027;BMP280;56312;55.976;37.136;2023-03-14T06:03:41;97750.56;;;0.30
66027;BMP280;56312;55.976;37.136;2023-03-14T06:08:47;97744.72;;;0.27
66027;BMP280;56312;55.976;37.136;2023-03-14T06:13:54;97756.56;;;0.25
66027;BMP280;56312;55.976;37.136;2023-03-14T06:19:00;97754.88;;;0.26
66027;BMP280;56312;55.976;37.136;2023-03-14T06:24:06;97751.47;;;0.28
66027;BMP280;56312;55.976;37.136;2023-03-14T06:29:13;97738.81;;;0.29
66027;BMP280;56312;55.976;37.136;2023-03-14T06:34:19;97731.19;;;0.31
66027;BMP280;56312;55.976;37.136;2023-03-14T06:39:25;97736.22;;;0.34
66027;BMP280;56312;55.976;37.136;2023-03-14T06:44:32;97731.09;;;0.38
66027;BMP280;56312;55.976;37.136;2023-03-14T06:49:38;97741.97;;;0.42
66027;BMP280;56312;55.976;37.136;2023-03-14T06:54:44;97732.75;;;0.41
66027;BMP280;56312;55.976;37.136;2023-03-14T06:59:51;97740.28;;;0.42
66027;BMP280;56312;55.976;37.136;2023-03-14T07:04:57;97757.13;;;0.43
66027;BMP280;56312;55.976;37.136;2023-03-14T07:10:04;97752.88;;;0.45
66027;BMP280;56312;55.976;37.136;2023-03-14T07:15:10;97752.06;;;0.43
66027;BMP280;56312;55.976;37.136;2023-03-14T07:20:17;97758.81;;;0.41
66027;BMP280;56312;55.976;37.136;2023-03-14T07:25:23;97762.22;;;0.40
66027;BMP280;56312;55.976;37.136;2023-03-14T07:30:29;97763.09;;;0.39
66027;BMP280;56312;55.976;37.136;2023-03-14T07:35:36;97752.06;;;0.42
66027;BMP280;56312;55.976;37.136;2023-03-14T07:40:43;97769.78;;;0.40
66027;BMP280;56312;55.976;37.136;2023-03-14T07:45:49;97763.03;;;0.41
66027;BMP280;56312;55.976;37.136;2023-03-14T07:50:55;97771.50;;;0.40
66027;BMP280;56312;55.976;37.136;2023-03-14T07:56:02;97781.56;;;0.41
66027;BMP280;56312;55.976;37.136;2023-03-14T08:01:08;97775.63;;;0.42
66027;BMP280;56312;55.976;37.136;2023-03-14T08:06:15;97774.84;;;0.40
66027;BMP280;56312;55.976;37.136;2023-03-14T08:11:21;97764.75;;;0.40
66027;BMP280;56312;55.976;37.136;2023-03-14T08:16:27;97767.22;;;0.42
66027;BMP280;56312;55.976;37.136;2023-03-14T08:21:34;97763.03;;;0.41
66027;BMP280;56312;55.976;37.136;2023-03-14T08:26:40;97766.41;;;0.41
66027;BMP280;56312;55.976;37.136;2023-03-14T08:31:46;97753.78;;;0.41
66027;BMP280;56312;55.976;37.136;2023-03-14T08:36:54;97761.34;;;0.43
66027;BMP280;56312;55.976;37.136;2023-03-14T08:42:02;97755.44;;;0.42
66027;BMP280;56312;55.976;37.136;2023-03-14T08:47:09;97757.06;;;0.46
66027;BMP280;56312;55.976;37.136;2023-03-14T08:52:15;97746.94;;;0.46
66027;BMP280;56312;55.976;37.136;2023-03-14T08:57:22;97753.69;;;0.47
66027;BMP280;56312;55.976;37.136;2023-03-14T09:02:32;97773.91;;;0.47
66027;BMP280;56312;55.976;37.136;2023-03-14T09:07:39;97778.91;;;0.49
66027;BMP280;56312;55.976;37.136;2023-03-14T09:12:46;97790.69;;;0.50
66027;BMP280;56312;55.976;37.136;2023-03-14T09:17:52;97773.81;;;0.50
66027;BMP280;56312;55.976;37.136;2023-03-14T09:22:59;97773.00;;;0.50
66027;BMP280;56312;55.976;37.136;2023-03-14T09:28:05;97773.00;;;0.50
66027;BMP280;56312;55.976;37.136;2023-03-14T09:33:12;97766.25;;;0.50
66027;BMP280;56312;55.976;37.136;2023-03-14T09:38:18;97768.78;;;0.50
66027;BMP280;56312;55.976;37.136;2023-03-14T09:43:27;97756.19;;;0.49
66027;BMP280;56312;55.976;37.136;2023-03-14T09:48:35;97735.94;;;0.50
66027;BMP280;56312;55.976;37.136;2023-03-14T09:53:43;97733.41;;;0.50
66027;BMP280;56312;55.976;37.136;2023-03-14T09:58:52;97743.50;;;0.50
66027;BMP280;56312;55.976;37.136;2023-03-14T10:04:15;97743.50;;;0.52
66027;BMP280;56312;55.976;37.136;2023-03-14T10:09:26;97746.03;;;0.52
66027;BMP280;56312;55.976;37.136;2023-03-14T10:14:34;97736.75;;;0.52
66027;BMP280;56312;55.976;37.136;2023-03-14T10:20:00;97720.72;;;0.53
66027;BMP280;56312;55.976;37.136;2023-03-14T10:25:10;97721.56;;;0.53
66027;BMP280;56312;55.976;37.136;2023-03-14T10:30:43;97719.91;;;0.52
66027;BMP280;56312;55.976;37.136;2023-03-14T10:35:54;97727.44;;;0.54
66027;BMP280;56312;55.976;37.136;2023-03-14T10:41:03;97732.50;;;0.55
66027;BMP280;56312;55.976;37.136;2023-03-14T10:46:31;97730.78;;;0.56
66027;BMP280;56312;55.976;37.136;2023-03-14T10:51:39;97719.81;;;0.57
66027;BMP280;56312;55.976;37.136;2023-03-14T10:56:47;97741.69;;;0.58
66027;BMP280;56312;55.976;37.136;2023-03-14T11:02:15;97753.50;;;0.59
66027;BMP280;56312;55.976;37.136;2023-03-14T11:07:35;97745.03;;;0.60
66027;BMP280;56312;55.976;37.136;2023-03-14T11:34:51;97761.84;;;0.61
66027;BMP280;56312;55.976;37.136;2023-03-14T11:45:19;97763.53;;;0.62
66027;BMP280;56312;55.976;37.136;2023-03-14T11:50:35;97767.75;;;0.61
66027;BMP280;56312;55.976;37.136;2023-03-14T11:55:44;97770.28;;;0.61
66027;BMP280;56312;55.976;37.136;2023-03-14T12:00:52;97782.06;;;0.62
66027;BMP280;56312;55.976;37.136;2023-03-14T12:11:31;97758.47;;;0.62
66027;BMP280;56312;55.976;37.136;2023-03-14T12:16:46;97729.84;;;0.63
66027;BMP280;56312;55.976;37.136;2023-03-14T12:22:01;97748.38;;;0.62
66027;BMP280;56312;55.976;37.136;2023-03-14T12:38:31;97774.50;;;0.62
66027;BMP280;56312;55.976;37.136;2023-03-14T12:43:53;97771.09;;;0.62
66027;BMP280;56312;55.976;37.136;2023-03-14T12:54:13;97744.16;;;0.62
66027;BMP280;56312;55.976;37.136;2023-03-14T12:59:34;97750.88;;;0.62
66027;BMP280;56312;55.976;37.136;2023-03-14T13:09:55;97733.19;;;0.63
66027;BMP280;56312;55.976;37.136;2023-03-14T13:15:15;97746.69;;;0.62
66027;BMP280;56312;55.976;37.136;2023-03-14T13:20:30;97751.72;;;0.64
66027;BMP280;56312;55.976;37.136;2023-03-14T13:25:40;97745.84;;;0.63
66027;BMP280;56312;55.976;37.136;2023-03-14T13:30:47;97750.88;;;0.63
66027;BMP280;56312;55.976;37.136;2023-03-14T13:41:06;97771.94;;;0.64
66027;BMP280;56312;55.976;37.136;2023-03-14T13:46:19;97776.16;;;0.63
66027;BMP280;56312;55.976;37.136;2023-03-14T13:51:28;97773.63;;;0.63
66027;BMP280;56312;55.976;37.136;2023-03-14T13:56:37;97771.09;;;0.63
66027;BMP280;56312;55.976;37.136;2023-03-14T14:01:43;97774.50;;;0.62
66027;BMP280;56312;55.976;37.136;2023-03-14T14:06:59;97763.53;;;0.62
66027;BMP280;56312;55.976;37.136;2023-03-14T14:12:10;97755.94;;;0.63
66027;BMP280;56312;55.976;37.136;2023-03-14T14:17:22;97742.47;;;0.63
66027;BMP280;56312;55.976;37.136;2023-03-14T14:22:33;97718.91;;;0.62
66027;BMP280;56312;55.976;37.136;2023-03-14T14:27:42;97726.44;;;0.64
66027;BMP280;56312;55.976;37.136;2023-03-14T14:32:50;97734.03;;;0.64
66027;BMP280;56312;55.976;37.136;2023-03-14T14:37:57;97728.97;;;0.64
66027;BMP280;56312;55.976;37.136;2023-03-14T14:43:04;97725.59;;;0.65
66027;BMP280;56312;55.976;37.136;2023-03-14T14:48:11;97719.69;;;0.64
66027;BMP280;56312;55.976;37.136;2023-03-14T14:58:27;97734.00;;;0.65
66027;BMP280;56312;55.976;37.136;2023-03-14T15:03:50;97752.50;;;0.67
66027;BMP280;56312;55.976;37.136;2023-03-14T15:08:58;97762.59;;;0.67
66027;BMP280;56312;55.976;37.136;2023-03-14T15:14:04;97751.66;;;0.67
66027;BMP280;56312;55.976;37.136;2023-03-14T15:19:19;97770.22;;;0.66
66027;BMP280;56312;55.976;37.136;2023-03-14T15:24:29;97767.66;;;0.67
66027;BMP280;56312;55.976;37.136;2023-03-14T15:29:35;97763.44;;;0.68
66027;BMP280;56312;55.976;37.136;2023-03-14T15:34:43;97766.00;;;0.66
66027;BMP280;56312;55.976;37.136;2023-03-14T15:39:49;97766.81;;;0.67
66027;BMP280;56312;55.976;37.136;2023-03-14T15:44:55;97776.09;;;0.66
66027;BMP280;56312;55.976;37.136;2023-03-14T15:50:02;97778.59;;;0.68
66027;BMP280;56312;55.976;37.136;2023-03-14T15:55:09;97796.28;;;0.68
66027;BMP280;56312;55.976;37.136;2023-03-14T16:00:16;97807.22;;;0.68
66027;BMP280;56312;55.976;37.136;2023-03-14T16:05:24;97812.28;;;0.68
66027;BMP280;56312;55.976;37.136;2023-03-14T16:10:31;97826.56;;;0.69
66027;BMP280;56312;55.976;37.136;2023-03-14T16:15:37;97832.47;;;0.70
66027;BMP280;56312;55.976;37.136;2023-03-14T16:20:44;97818.97;;;0.69
66027;BMP280;56312;55.976;37.136;2023-03-14T16:25:57;97825.72;;;0.69
66027;BMP280;56312;55.976;37.136;2023-03-14T16:31:08;97824.06;;;0.68
66027;BMP280;56312;55.976;37.136;2023-03-14T16:36:16;97848.47;;;0.69
66027;BMP280;56312;55.976;37.136;2023-03-14T16:41:23;97823.25;;;0.67
66027;BMP280;56312;55.976;37.136;2023-03-14T16:46:29;97842.59;;;0.68
66027;BMP280;56312;55.976;37.136;2023-03-14T16:51:36;97844.25;;;0.69
66027;BMP280;56312;55.976;37.136;2023-03-14T16:56:42;97837.53;;;0.68
66027;BMP280;56312;55.976;37.136;2023-03-14T17:01:50;97824.91;;;0.70
66027;BMP280;56312;55.976;37.136;2023-03-14T17:06:56;97851.84;;;0.69
66027;BMP280;56312;55.976;37.136;2023-03-14T17:12:03;97852.69;;;0.70
66027;BMP280;56312;55.976;37.136;2023-03-14T17:17:10;97857.75;;;0.70
66027;BMP280;56312;55.976;37.136;2023-03-14T17:22:17;97858.59;;;0.69
66027;BMP280;56312;55.976;37.136;2023-03-14T17:27:23;97857.75;;;0.70
66027;BMP280;56312;55.976;37.136;2023-03-14T17:32:29;97863.63;;;0.70
66027;BMP280;56312;55.976;37.136;2023-03-14T17:37:36;97853.53;;;0.70
66027;BMP280;56312;55.976;37.136;2023-03-14T17:42:42;97864.47;;;0.71
66027;BMP280;56312;55.976;37.136;2023-03-14T17:47:48;97863.63;;;0.70
66027;BMP280;56312;55.976;37.136;2023-03-14T17:52:56;97855.19;;;0.71
66027;BMP280;56312;55.976;37.136;2023-03-14T17:58:02;97832.44;;;0.71
66027;BMP280;56312;55.976;37.136;2023-03-14T18:03:10;97824.88;;;0.71
66027;BMP280;56312;55.976;37.136;2023-03-14T18:08:16;97807.19;;;0.71
66027;BMP280;56312;55.976;37.136;2023-03-14T18:13:23;97807.13;;;0.73
66027;BMP280;56312;55.976;37.136;2023-03-14T18:18:29;97784.41;;;0.73
66027;BMP280;56312;55.976;37.136;2023-03-14T18:23:36;97790.28;;;0.73
66027;BMP280;56312;55.976;37.136;2023-03-14T18:28:43;97798.72;;;0.74
66027;BMP280;56312;55.976;37.136;2023-03-14T18:33:50;97816.41;;;0.74
66027;BMP280;56312;55.976;37.136;2023-03-14T18:39:00;97809.66;;;0.74
66027;BMP280;56312;55.976;37.136;2023-03-14T18:44:07;97813.03;;;0.75
66027;BMP280;56312;55.976;37.136;2023-03-14T18:49:14;97825.66;;;0.75
66027;BMP280;56312;55.976;37.136;2023-03-14T18:54:20;97839.94;;;0.76
66027;BMP280;56312;55.976;37.136;2023-03-14T18:59:26;97847.53;;;0.76
66027;BMP280;56312;55.976;37.136;2023-03-14T19:04:33;97850.06;;;0.76
66027;BMP280;56312;55.976;37.136;2023-03-14T19:09:39;97867.75;;;0.76
66027;BMP280;56312;55.976;37.136;2023-03-14T19:14:45;97865.19;;;0.77
66027;BMP280;56312;55.976;37.136;2023-03-14T19:19:52;97881.22;;;0.78
66027;BMP280;56312;55.976;37.136;2023-03-14T19:24:58;97880.34;;;0.77
66027;BMP280;56312;55.976;37.136;2023-03-14T19:30:05;97896.38;;;0.78
66027;BMP280;56312;55.976;37.136;2023-03-14T19:35:12;97900.56;;;0.77
66027;BMP280;56312;55.976;37.136;2023-03-14T19:40:18;97892.97;;;0.77
66027;BMP280;56312;55.976;37.136;2023-03-14T19:45:24;97907.31;;;0.77
66027;BMP280;56312;55.976;37.136;2023-03-14T19:50:36;97889.63;;;0.77
66027;BMP280;56312;55.976;37.136;2023-03-14T19:55:43;97898.91;;;0.78
66027;BMP280;56312;55.976;37.136;2023-03-14T20:00:51;97903.09;;;0.79
66027;BMP280;56312;55.976;37.136;2023-03-14T20:05:57;97911.53;;;0.78
66027;BMP280;56312;55.976;37.136;2023-03-14T20:11:04;97918.25;;;0.79
66027;BMP280;56312;55.976;37.136;2023-03-14T20:16:11;97916.59;;;0.78
66027;BMP280;56312;55.976;37.136;2023-03-14T20:21:18;97918.25;;;0.79
66027;BMP280;56312;55.976;37.136;2023-03-14T20:26:24;97920.78;;;0.79
66027;BMP280;56312;55.976;37.136;2023-03-14T20:31:34;97925.78;;;0.80
66027;BMP280;56312;55.976;37.136;2023-03-14T20:36:42;97924.97;;;0.79
66027;BMP280;56312;55.976;37.136;2023-03-14T20:41:52;97928.31;;;0.81
66027;BMP280;56312;55.976;37.136;2023-03-14T20:46:59;97924.09;;;0.80
66027;BMP280;56312;55.976;37.136;2023-03-14T20:52:05;97913.16;;;0.81
66027;BMP280;56312;55.976;37.136;2023-03-14T20:57:12;97914.00;;;0.80
66027;BMP280;56312;55.976;37.136;2023-03-14T21:02:20;97910.63;;;0.80
66027;BMP280;56312;55.976;37.136;2023-03-14T21:07:28;97914.81;;;0.82
66027;BMP280;56312;55.976;37.136;2023-03-14T21:12:38;97914.81;;;0.82
66027;BMP280;56312;55.976;37.136;2023-03-14T21:17:45;97925.75;;;0.83
66027;BMP280;56312;55.976;37.136;2023-03-14T21:22:52;97926.59;;;0.83
66027;BMP280;56312;55.976;37.136;2023-03-14T21:27:58;97913.94;;;0.83
66027;BMP280;56312;55.976;37.136;2023-03-14T21:33:08;97919.88;;;0.82
66027;BMP280;56312;55.976;37.136;2023-03-14T21:38:15;97918.13;;;0.84
66027;BMP280;56312;55.976;37.136;2023-03-14T21:43:24;97910.59;;;0.83
66027;BMP280;56312;55.976;37.136;2023-03-14T21:48:31;97905.50;;;0.84
66027;BMP280;56312;55.976;37.136;2023-03-14T21:53:38;97908.03;;;0.84
66027;BMP280;56312;55.976;37.136;2023-03-14T21:58:45;97913.09;;;0.84
66027;BMP280;56312;55.976;37.136;2023-03-14T22:03:51;97909.72;;;0.84
66027;BMP280;56312;55.976;37.136;2023-03-14T22:08:58;97911.38;;;0.85
66027;BMP280;56312;55.976;37.136;2023-03-14T22:14:04;97909.72;;;0.85
66027;BMP280;56312;55.976;37.136;2023-03-14T22:19:11;97914.78;;;0.85
66027;BMP280;56312;55.976;37.136;2023-03-14T22:24:17;97916.44;;;0.86
66027;BMP280;56312;55.976;37.136;2023-03-14T22:29:23;97919.81;;;0.87
66027;BMP280;56312;55.976;37.136;2023-03-14T22:34:30;97912.22;;;0.87
66027;BMP280;56312;55.976;37.136;2023-03-14T22:39:36;97921.47;;;0.89
66027;BMP280;56312;55.976;37.136;2023-03-14T22:44:43;97920.63;;;0.87
66027;BMP280;56312;55.976;37.136;2023-03-14T22:49:49;97911.34;;;0.89
66027;BMP280;56312;55.976;37.136;2023-03-14T22:54:55;97921.47;;;0.89
66027;BMP280;56312;55.976;37.136;2023-03-14T23:00:03;97913.88;;;0.89
66027;BMP280;56312;55.976;37.136;2023-03-14T23:05:16;97908.81;;;0.89
66027;BMP280;56312;55.976;37.136;2023-03-14T23:10:23;97916.41;;;0.89
66027;BMP280;56312;55.976;37.136;2023-03-14T23:15:29;97911.34;;;0.89
66027;BMP280;56312;55.976;37.136;2023-03-14T23:20:36;97913.88;;;0.89
66027;BMP280;56312;55.976;37.136;2023-03-14T23:25:42;97913.00;;;0.90
66027;BMP280;56312;55.976;37.136;2023-03-14T23:30:52;97915.53;;;0.90
66027;BMP280;56312;55.976;37.136;2023-03-14T23:36:01;97912.16;;;0.91
66027;BMP280;56312;55.976;37.136;2023-03-14T23:41:09;97914.66;;;0.91
66027;BMP280;56312;55.976;37.136;2023-03-14T23:46:19;97932.34;;;0.93
66027;BMP280;56312;55.976;37.136;2023-03-14T23:51:26;97921.38;;;0.92
66027;BMP280;56312;55.976;37.136;2023-03-14T23:56:32;97915.50;;;0.92
